Time;durP1;ratioP1;P1;durP2;ratioP2;P2;SDS_P1;SDS_P2;PMS_P1;PMS_P2;Temp;Humidity;BMP_temperature;BMP_pressure;BME280_temperature;BME280_humidity;BME280_pressure;Samples;Min_cycle;Max_cycle;Signal;HPM_P1;HPM_P2
2023/05/23 00:02:15;;;;;;;12.20;11.60;;;;;;;;;;5020859;28;20025;-61
2023/05/23 00:04:41;;;;;;;12.00;11.40;;;;;;;;;;5028227;28;20041;-61
2023/05/23 00:07:07;;;;;;;12.23;11.63;;;;;;;;;;5030519;28;20026;-61
2023/05/23 00:09:32;;;;;;;11.77;11.18;;;;;;;;;;5024329;28;20364;-61
2023/05/23 00:11:58;;;;;;;12.13;11.52;;;;;;;;;;5030494;28;20026;-61
2023/05/23 00:14:23;;;;;;;11.27;10.77;;;;;;;;;;5025631;28;20029;-61
2023/05/23 00:16:48;;;;;;;12.02;11.43;;;;;;;;;;5023285;28;20026;-61
2023/05/23 00:19:14;;;;;;;12.02;11.43;;;;;;;;;;5024954;28;20014;-61
2023/05/23 00:21:40;;;;;;;12.10;11.50;;;;;;;;;;5029735;28;20113;-60
2023/05/23 00:24:06;;;;;;;12.48;11.88;;;;;;;;;;5024982;28;20097;-61
2023/05/23 00:26:31;;;;;;;12.25;11.65;;;;;;;;;;5021385;28;20401;-61
2023/05/23 00:28:57;;;;;;;12.02;11.43;;;;;;;;;;5029456;28;20034;-61
2023/05/23 00:31:22;;;;;;;11.85;11.25;;;;;;;;;;5025078;28;20472;-61
2023/05/23 00:33:47;;;;;;;11.93;11.32;;;;;;;;;;5029111;28;20033;-63
2023/05/23 00:36:13;;;;;;;12.02;11.43;;;;;;;;;;5024635;28;20035;-61
2023/05/23 00:38:38;;;;;;;11.85;11.25;;;;;;;;;;5020526;28;20030;-61
2023/05/23 00:41:04;;;;;;;11.93;11.32;;;;;;;;;;5030369;28;20033;-62
2023/05/23 00:43:30;;;;;;;12.00;11.40;;;;;;;;;;5028910;28;20064;-61
2023/05/23 00:45:55;;;;;;;12.00;11.40;;;;;;;;;;5029945;28;20044;-62
2023/05/23 00:48:21;;;;;;;12.90;12.20;;;;;;;;;;5022470;28;20572;-62
2023/05/23 00:50:46;;;;;;;12.30;11.70;;;;;;;;;;5026043;28;20022;-63
2023/05/23 00:53:12;;;;;;;12.93;12.23;;;;;;;;;;5026978;28;20021;-62
2023/05/23 00:55:38;;;;;;;12.90;12.20;;;;;;;;;;5017571;28;20025;-62
2023/05/23 00:58:03;;;;;;;12.23;11.63;;;;;;;;;;5027034;28;20053;-62
2023/05/23 01:00:30;;;;;;;11.98;11.38;;;;;;;;;;5027859;28;20049;-62
2023/05/23 01:02:55;;;;;;;12.35;11.75;;;;;;;;;;5028015;28;20040;-61
2023/05/23 01:05:21;;;;;;;11.65;11.13;;;;;;;;;;5026987;28;20394;-62
2023/05/23 01:07:47;;;;;;;11.90;11.30;;;;;;;;;;5028024;28;20116;-61
2023/05/23 01:10:13;;;;;;;11.85;11.25;;;;;;;;;;5019872;28;20025;-61
2023/05/23 01:12:52;;;;;;;12.00;11.40;;;;;;;;;;5029210;28;20319;-62
2023/05/23 01:15:18;;;;;;;12.90;12.20;;;;;;;;;;5021674;28;20104;-61
2023/05/23 01:17:51;;;;;;;11.80;11.20;;;;;;;;;;5026516;28;20052;-61
2023/05/23 01:20:17;;;;;;;12.00;11.40;;;;;;;;;;5027503;28;20024;-62
2023/05/23 01:23:01;;;;;;;13.18;12.48;;;;;;;;;;5015753;28;20104;-62
2023/05/23 01:25:29;;;;;;;11.63;11.13;;;;;;;;;;5026568;28;20025;-62
2023/05/23 01:27:55;;;;;;;12.48;11.88;;;;;;;;;;5016889;28;20489;-63
2023/05/23 01:30:22;;;;;;;11.82;11.30;;;;;;;;;;5028001;28;20029;-62
2023/05/23 01:32:49;;;;;;;12.05;11.45;;;;;;;;;;5026474;28;20025;-62
2023/05/23 01:35:21;;;;;;;12.90;12.23;;;;;;;;;;5018544;28;20018;-61
2023/05/23 01:37:46;;;;;;;12.48;11.88;;;;;;;;;;5024272;28;20029;-62
2023/05/23 01:40:11;;;;;;;12.00;11.40;;;;;;;;;;5029177;28;20021;-61
2023/05/23 01:42:37;;;;;;;13.00;12.30;;;;;;;;;;5021012;28;20135;-61
2023/05/23 01:45:03;;;;;;;12.07;11.48;;;;;;;;;;5029559;28;20580;-61
2023/05/23 01:47:28;;;;;;;13.00;12.30;;;;;;;;;;5033354;28;20032;-62
2023/05/23 01:49:54;;;;;;;12.63;12.02;;;;;;;;;;5019553;28;20022;-61
2023/05/23 01:52:20;;;;;;;13.00;12.30;;;;;;;;;;5025318;28;20022;-62
2023/05/23 01:54:47;;;;;;;13.20;12.50;;;;;;;;;;5028026;28;20036;-62
2023/05/23 01:57:13;;;;;;;12.68;12.07;;;;;;;;;;5024936;28;20500;-62
2023/05/23 01:59:40;;;;;;;12.77;12.07;;;;;;;;;;5027715;28;20018;-62
2023/05/23 02:02:05;;;;;;;12.15;11.55;;;;;;;;;;5029885;28;20082;-61
2023/05/23 02:04:31;;;;;;;12.95;12.25;;;;;;;;;;5018919;28;20153;-62
2023/05/23 02:06:56;;;;;;;12.60;12.00;;;;;;;;;;5026322;28;20037;-62
2023/05/23 02:09:22;;;;;;;12.48;11.88;;;;;;;;;;5024439;28;20037;-62
2023/05/23 02:11:47;;;;;;;11.82;11.23;;;;;;;;;;5029551;28;20030;-61
2023/05/23 02:14:12;;;;;;;12.95;12.25;;;;;;;;;;5022873;28;20032;-62
2023/05/23 02:16:38;;;;;;;12.68;12.05;;;;;;;;;;5024815;28;20088;-62
2023/05/23 02:19:03;;;;;;;12.60;11.98;;;;;;;;;;5026951;28;20470;-61
2023/05/23 02:21:28;;;;;;;12.68;12.07;;;;;;;;;;5026710;28;20078;-60
2023/05/23 02:23:53;;;;;;;13.30;12.60;;;;;;;;;;5019195;28;20513;-61
2023/05/23 02:26:19;;;;;;;12.30;11.70;;;;;;;;;;5022651;28;20493;-63
2023/05/23 02:28:44;;;;;;;13.05;12.35;;;;;;;;;;5030273;28;20021;-61
2023/05/23 02:31:09;;;;;;;12.48;11.88;;;;;;;;;;5027146;28;20033;-61
2023/05/23 02:33:35;;;;;;;13.07;12.38;;;;;;;;;;5023739;28;20021;-60
2023/05/23 02:36:01;;;;;;;12.50;11.90;;;;;;;;;;5024991;28;20026;-61
2023/05/23 02:38:26;;;;;;;12.13;11.52;;;;;;;;;;5026958;28;20021;-62
2023/05/23 02:40:52;;;;;;;13.13;12.43;;;;;;;;;;5031464;28;20656;-63
2023/05/23 02:43:18;;;;;;;12.65;12.02;;;;;;;;;;5018304;28;20057;-61
2023/05/23 02:45:43;;;;;;;13.13;12.43;;;;;;;;;;5030056;28;20060;-61
2023/05/23 02:48:10;;;;;;;12.73;12.02;;;;;;;;;;5028348;28;20060;-62
2023/05/23 02:50:36;;;;;;;13.00;12.30;;;;;;;;;;5018858;28;20163;-61
2023/05/23 02:53:01;;;;;;;12.93;12.23;;;;;;;;;;5028702;28;20101;-62
2023/05/23 02:55:27;;;;;;;12.40;11.80;;;;;;;;;;5032369;28;20024;-62
2023/05/23 02:57:53;;;;;;;12.48;11.88;;;;;;;;;;5027982;28;20076;-62
2023/05/23 03:00:18;;;;;;;11.48;10.98;;;;;;;;;;5024595;28;20452;-62
2023/05/23 03:02:43;;;;;;;13.13;12.43;;;;;;;;;;5024085;28;20083;-61
2023/05/23 03:05:09;;;;;;;12.27;11.68;;;;;;;;;;5027182;28;20073;-62
2023/05/23 03:07:35;;;;;;;12.70;12.00;;;;;;;;;;5027293;28;20374;-62
2023/05/23 03:10:01;;;;;;;12.48;11.88;;;;;;;;;;5025341;28;20112;-61
2023/05/23 03:12:29;;;;;;;12.13;11.52;;;;;;;;;;5029176;28;20061;-62
2023/05/23 03:14:54;;;;;;;12.35;11.75;;;;;;;;;;5026316;28;20026;-61
2023/05/23 03:17:19;;;;;;;12.23;11.63;;;;;;;;;;5025314;28;20051;-63
2023/05/23 03:19:45;;;;;;;13.00;12.30;;;;;;;;;;5026379;28;20030;-61
2023/05/23 03:22:10;;;;;;;12.30;11.70;;;;;;;;;;5030545;28;20033;-61
2023/05/23 03:24:35;;;;;;;12.23;11.63;;;;;;;;;;5026177;28;20021;-62
2023/05/23 03:27:01;;;;;;;12.45;11.85;;;;;;;;;;5030810;28;20439;-60
2023/05/23 03:29:27;;;;;;;11.85;11.32;;;;;;;;;;5028292;28;20025;-62
2023/05/23 03:31:52;;;;;;;11.93;11.32;;;;;;;;;;5016973;28;20817;-62
2023/05/23 03:34:17;;;;;;;12.00;11.40;;;;;;;;;;5026470;28;20102;-61
2023/05/23 03:36:43;;;;;;;12.55;11.95;;;;;;;;;;5028745;28;20088;-61
2023/05/23 03:39:08;;;;;;;12.32;11.73;;;;;;;;;;5024246;28;20021;-63
2023/05/23 03:41:33;;;;;;;11.77;11.27;;;;;;;;;;5026281;28;20501;-62
2023/05/23 03:43:59;;;;;;;12.32;11.73;;;;;;;;;;5022281;28;20025;-63
2023/05/23 03:46:25;;;;;;;12.20;11.60;;;;;;;;;;5023591;28;20018;-61
2023/05/23 03:48:50;;;;;;;12.70;12.10;;;;;;;;;;5028612;28;20516;-62
2023/05/23 03:51:16;;;;;;;13.00;12.40;;;;;;;;;;5029098;28;20056;-61
2023/05/23 03:53:41;;;;;;;12.55;11.95;;;;;;;;;;5029158;28;20132;-61
2023/05/23 03:56:06;;;;;;;11.73;11.23;;;;;;;;;;5020249;28;20029;-60
2023/05/23 03:58:32;;;;;;;11.93;11.43;;;;;;;;;;5028190;28;20025;-62
2023/05/23 04:00:57;;;;;;;11.75;11.25;;;;;;;;;;5031427;28;20032;-62
2023/05/23 04:03:22;;;;;;;11.98;11.48;;;;;;;;;;5027094;28;20022;-63
2023/05/23 04:05:48;;;;;;;12.68;12.07;;;;;;;;;;5030759;28;20069;-62
2023/05/23 04:08:14;;;;;;;11.80;11.30;;;;;;;;;;5025226;28;20043;-62
2023/05/23 04:10:40;;;;;;;12.32;11.73;;;;;;;;;;5023919;28;20038;-61
2023/05/23 04:13:05;;;;;;;12.70;12.10;;;;;;;;;;5028289;28;20033;-61
2023/05/23 04:15:33;;;;;;;12.35;11.75;;;;;;;;;;5025832;28;20358;-61
2023/05/23 04:17:58;;;;;;;11.73;11.23;;;;;;;;;;5024316;28;20091;-60
2023/05/23 04:20:23;;;;;;;12.05;11.52;;;;;;;;;;5026933;28;20492;-60
2023/05/23 04:22:49;;;;;;;12.82;12.23;;;;;;;;;;5030150;28;20024;-61
2023/05/23 04:25:17;;;;;;;12.43;11.82;;;;;;;;;;5026280;28;20018;-61
2023/05/23 04:27:42;;;;;;;12.40;11.80;;;;;;;;;;5025807;28;20036;-60
2023/05/23 04:30:08;;;;;;;13.05;12.45;;;;;;;;;;5028192;28;20026;-60
2023/05/23 04:32:34;;;;;;;12.50;11.90;;;;;;;;;;5027848;28;20053;-60
2023/05/23 04:35:00;;;;;;;12.32;11.73;;;;;;;;;;5023715;28;20060;-61
2023/05/23 04:37:26;;;;;;;11.93;11.43;;;;;;;;;;5024336;28;20561;-62
2023/05/23 04:39:51;;;;;;;12.65;12.05;;;;;;;;;;5020262;28;20109;-61
2023/05/23 04:42:17;;;;;;;12.30;11.70;;;;;;;;;;5028031;28;20031;-61
2023/05/23 04:44:42;;;;;;;11.73;11.23;;;;;;;;;;5028065;28;20032;-61
2023/05/23 04:47:08;;;;;;;12.10;11.50;;;;;;;;;;5027412;28;20033;-62
2023/05/23 04:49:35;;;;;;;12.25;11.65;;;;;;;;;;5022056;28;20481;-61
2023/05/23 04:52:00;;;;;;;12.73;12.13;;;;;;;;;;5029749;28;20457;-61
2023/05/23 04:54:26;;;;;;;13.07;12.48;;;;;;;;;;5024146;28;20052;-61
2023/05/23 04:56:51;;;;;;;13.07;12.48;;;;;;;;;;5024608;28;20022;-61
2023/05/23 04:59:16;;;;;;;13.65;12.95;;;;;;;;;;5030846;28;20394;-61
2023/05/23 05:01:41;;;;;;;13.85;13.15;;;;;;;;;;5025714;28;20018;-60
2023/05/23 05:04:07;;;;;;;12.70;12.10;;;;;;;;;;5026581;28;20049;-61
2023/05/23 05:06:32;;;;;;;13.00;12.40;;;;;;;;;;5026986;28;20036;-60
2023/05/23 05:08:58;;;;;;;12.57;11.98;;;;;;;;;;5028914;28;20025;-61
2023/05/23 05:11:23;;;;;;;11.90;11.40;;;;;;;;;;5022770;28;20021;-62
2023/05/23 05:13:48;;;;;;;12.10;11.50;;;;;;;;;;5029595;28;20163;-60
2023/05/23 05:16:14;;;;;;;11.55;11.05;;;;;;;;;;5028909;28;20022;-60
2023/05/23 05:18:40;;;;;;;11.80;11.30;;;;;;;;;;5028024;28;20025;-61
2023/05/23 05:21:06;;;;;;;13.50;12.80;;;;;;;;;;5028343;28;20013;-61
2023/05/23 05:23:32;;;;;;;11.88;11.38;;;;;;;;;;5029111;28;20021;-60
2023/05/23 05:25:57;;;;;;;11.82;11.32;;;;;;;;;;5024835;28;20017;-60
2023/05/23 05:28:22;;;;;;;12.30;11.70;;;;;;;;;;5054959;28;20045;-61
2023/05/23 05:30:52;;;;;;;12.18;11.57;;;;;;;;;;5029864;28;20029;-61
2023/05/23 05:33:18;;;;;;;12.00;11.40;;;;;;;;;;5031605;28;20035;-60
2023/05/23 05:35:43;;;;;;;12.85;12.25;;;;;;;;;;5030123;28;20702;-60
2023/05/23 05:38:09;;;;;;;12.52;11.93;;;;;;;;;;5030075;28;20116;-61
2023/05/23 05:40:35;;;;;;;12.35;11.75;;;;;;;;;;5029216;28;20108;-61
2023/05/23 05:43:00;;;;;;;12.23;11.63;;;;;;;;;;5023061;28;20109;-61
2023/05/23 05:45:25;;;;;;;13.18;12.57;;;;;;;;;;5029682;28;20542;-61
2023/05/23 05:47:51;;;;;;;12.60;12.00;;;;;;;;;;5032862;28;20025;-61
2023/05/23 05:50:16;;;;;;;12.00;11.50;;;;;;;;;;5029644;28;20029;-61
2023/05/23 05:52:42;;;;;;;11.90;11.40;;;;;;;;;;5024920;28;20393;-61
2023/05/23 05:55:11;;;;;;;12.30;11.80;;;;;;;;;;5023924;28;20489;-62
2023/05/23 05:57:37;;;;;;;12.88;12.27;;;;;;;;;;5022797;28;20025;-61
2023/05/23 06:00:10;;;;;;;12.50;11.93;;;;;;;;;;5018805;28;20018;-62
2023/05/23 06:02:36;;;;;;;11.60;11.10;;;;;;;;;;5022822;28;20017;-64
2023/05/23 06:05:01;;;;;;;12.47;11.87;;;;;;;;;;5025661;28;20179;-62
2023/05/23 06:07:26;;;;;;;12.07;11.57;;;;;;;;;;5026726;28;20266;-63
2023/05/23 06:09:51;;;;;;;12.50;11.90;;;;;;;;;;5022996;28;20274;-63
2023/05/23 06:12:17;;;;;;;11.97;11.47;;;;;;;;;;5021342;28;20274;-64
2023/05/23 06:14:42;;;;;;;11.80;11.30;;;;;;;;;;5028011;28;20037;-63
2023/05/23 06:17:07;;;;;;;12.00;11.50;;;;;;;;;;5026602;28;21115;-64
2023/05/23 06:19:33;;;;;;;12.25;11.75;;;;;;;;;;5027868;28;20262;-64
2023/05/23 06:21:59;;;;;;;12.02;11.52;;;;;;;;;;5022923;28;20176;-64
2023/05/23 06:24:27;;;;;;;11.90;11.40;;;;;;;;;;5025536;28;20022;-64
2023/05/23 06:26:53;;;;;;;12.20;11.70;;;;;;;;;;5025188;28;20110;-64
2023/05/23 06:29:18;;;;;;;11.70;11.20;;;;;;;;;;5026150;28;20034;-65
2023/05/23 06:31:43;;;;;;;11.90;11.40;;;;;;;;;;5029968;28;20768;-64
2023/05/23 06:34:09;;;;;;;11.80;11.30;;;;;;;;;;5023624;28;20072;-64
2023/05/23 06:36:34;;;;;;;11.80;11.30;;;;;;;;;;5016439;28;20708;-62
2023/05/23 06:38:59;;;;;;;12.17;11.67;;;;;;;;;;5022589;28;20087;-64
2023/05/23 06:41:26;;;;;;;11.70;11.20;;;;;;;;;;5024912;28;20966;-64
2023/05/23 06:43:51;;;;;;;11.90;11.40;;;;;;;;;;5027815;28;20305;-64
2023/05/23 06:46:17;;;;;;;11.80;11.30;;;;;;;;;;5030897;28;20049;-63
2023/05/23 06:48:42;;;;;;;12.00;11.50;;;;;;;;;;5026153;28;20068;-64
2023/05/23 06:51:07;;;;;;;11.80;11.30;;;;;;;;;;5027612;28;20348;-64
2023/05/23 06:53:33;;;;;;;11.63;11.13;;;;;;;;;;5023050;28;20276;-64
2023/05/23 06:55:58;;;;;;;11.80;11.30;;;;;;;;;;5025361;28;20124;-64
2023/05/23 06:58:24;;;;;;;11.67;11.17;;;;;;;;;;5025520;28;20358;-63
2023/05/23 07:00:49;;;;;;;11.57;11.07;;;;;;;;;;5026871;28;20018;-64
2023/05/23 07:03:15;;;;;;;11.90;11.40;;;;;;;;;;5017540;28;20470;-63
2023/05/23 07:05:40;;;;;;;12.80;12.20;;;;;;;;;;5025882;28;20286;-63
2023/05/23 07:08:06;;;;;;;12.18;11.68;;;;;;;;;;5016359;28;20596;-63
2023/05/23 07:10:33;;;;;;;11.98;11.48;;;;;;;;;;5026305;28;20029;-64
2023/05/23 07:12:58;;;;;;;11.73;11.23;;;;;;;;;;5023011;28;20029;-64
2023/05/23 07:15:24;;;;;;;12.13;11.60;;;;;;;;;;5025234;28;20095;-63
2023/05/23 07:17:49;;;;;;;11.87;11.37;;;;;;;;;;5029767;28;20024;-63
2023/05/23 07:20:14;;;;;;;12.40;11.80;;;;;;;;;;5030685;28;20294;-63
2023/05/23 07:22:40;;;;;;;12.18;11.68;;;;;;;;;;5025563;28;20569;-64
2023/05/23 07:25:06;;;;;;;12.23;11.67;;;;;;;;;;5027625;28;20489;-63
2023/05/23 07:27:31;;;;;;;12.10;11.60;;;;;;;;;;5028419;28;20341;-63
2023/05/23 07:29:57;;;;;;;11.93;11.43;;;;;;;;;;5027675;28;20071;-63
2023/05/23 07:32:22;;;;;;;12.10;11.55;;;;;;;;;;5022238;28;20266;-63
2023/05/23 07:34:47;;;;;;;12.02;11.52;;;;;;;;;;5031682;28;20025;-64
2023/05/23 07:37:13;;;;;;;12.35;11.75;;;;;;;;;;5031020;28;20095;-63
2023/05/23 07:39:38;;;;;;;12.50;11.90;;;;;;;;;;5023686;28;20029;-63
2023/05/23 07:42:03;;;;;;;12.23;11.70;;;;;;;;;;5023053;28;20266;-64
2023/05/23 07:44:28;;;;;;;12.52;11.93;;;;;;;;;;5017677;28;20680;-63
2023/05/23 07:46:54;;;;;;;12.00;11.50;;;;;;;;;;5031642;28;20046;-63
2023/05/23 07:49:19;;;;;;;11.75;11.25;;;;;;;;;;5029447;28;20028;-63
2023/05/23 07:51:45;;;;;;;12.27;11.68;;;;;;;;;;5028469;28;20603;-63
2023/05/23 07:54:11;;;;;;;12.13;11.60;;;;;;;;;;5029914;28;20036;-63
2023/05/23 07:56:37;;;;;;;13.07;12.48;;;;;;;;;;5030241;28;20018;-63
2023/05/23 07:59:02;;;;;;;11.85;11.35;;;;;;;;;;5026911;28;20358;-62
2023/05/23 08:01:28;;;;;;;11.88;11.38;;;;;;;;;;5059391;28;20040;-62
2023/05/23 08:03:53;;;;;;;11.88;11.38;;;;;;;;;;5030764;28;20562;-63
2023/05/23 08:06:18;;;;;;;11.80;11.30;;;;;;;;;;5029923;28;20415;-63
2023/05/23 08:08:44;;;;;;;12.20;11.60;;;;;;;;;;5024632;28;20454;-63
2023/05/23 08:11:09;;;;;;;12.40;11.80;;;;;;;;;;5023932;28;20270;-63
2023/05/23 08:13:34;;;;;;;11.95;11.45;;;;;;;;;;5025266;28;20363;-63
2023/05/23 08:16:00;;;;;;;12.20;11.60;;;;;;;;;;5026013;28;20055;-64
2023/05/23 08:18:25;;;;;;;11.85;11.35;;;;;;;;;;5024830;28;20297;-63
2023/05/23 08:20:51;;;;;;;12.80;12.20;;;;;;;;;;5028193;28;20079;-64
2023/05/23 08:23:16;;;;;;;12.00;11.50;;;;;;;;;;5023151;28;20452;-64
2023/05/23 08:25:42;;;;;;;11.95;11.45;;;;;;;;;;5025964;28;20431;-64
2023/05/23 08:28:07;;;;;;;12.40;11.80;;;;;;;;;;5028089;28;20037;-63
2023/05/23 08:30:32;;;;;;;12.52;11.93;;;;;;;;;;5021141;28;20476;-63
2023/05/23 08:32:59;;;;;;;12.52;11.93;;;;;;;;;;5027267;28;20551;-63
2023/05/23 08:35:25;;;;;;;12.25;11.65;;;;;;;;;;5021312;28;20025;-63
2023/05/23 08:37:51;;;;;;;12.00;11.50;;;;;;;;;;5026511;28;20112;-63
2023/05/23 08:40:20;;;;;;;13.07;12.48;;;;;;;;;;5019156;28;20529;-63
2023/05/23 08:42:46;;;;;;;12.43;11.82;;;;;;;;;;5020465;28;20389;-64
2023/05/23 08:45:12;;;;;;;11.95;11.45;;;;;;;;;;5023597;28;20040;-64
2023/05/23 08:47:39;;;;;;;13.60;12.90;;;;;;;;;;5021314;28;20914;-67
2023/05/23 08:50:07;;;;;;;13.00;12.40;;;;;;;;;;5017274;28;20026;-66
2023/05/23 08:52:32;;;;;;;13.05;12.45;;;;;;;;;;5026824;28;20037;-65
2023/05/23 08:54:59;;;;;;;12.70;12.10;;;;;;;;;;5021746;28;20025;-64
2023/05/23 08:57:25;;;;;;;12.50;11.90;;;;;;;;;;5024114;28;20030;-66
2023/05/23 08:59:51;;;;;;;14.00;13.30;;;;;;;;;;5023915;28;20028;-65
2023/05/23 09:02:17;;;;;;;14.18;13.48;;;;;;;;;;5020000;28;20036;-65
2023/05/23 09:04:42;;;;;;;12.55;11.95;;;;;;;;;;5020592;28;20053;-66
2023/05/23 09:07:08;;;;;;;13.27;12.68;;;;;;;;;;5025561;28;20033;-66
2023/05/23 09:09:34;;;;;;;12.77;12.18;;;;;;;;;;5023718;28;20125;-66
2023/05/23 09:11:59;;;;;;;12.77;12.18;;;;;;;;;;5021038;28;20113;-66
2023/05/23 09:14:25;;;;;;;12.98;12.38;;;;;;;;;;5022135;28;20068;-67
2023/05/23 09:16:51;;;;;;;12.38;11.77;;;;;;;;;;5024871;28;20497;-68
2023/05/23 09:19:17;;;;;;;11.73;11.23;;;;;;;;;;5022992;28;20040;-67
2023/05/23 09:21:43;;;;;;;13.15;12.55;;;;;;;;;;5023445;28;20021;-67
2023/05/23 09:24:08;;;;;;;13.23;12.63;;;;;;;;;;5023073;28;20116;-68
2023/05/23 09:26:34;;;;;;;12.77;12.18;;;;;;;;;;5023930;28;20105;-67
2023/05/23 09:28:59;;;;;;;12.85;12.25;;;;;;;;;;5024509;28;20385;-68
2023/05/23 09:31:26;;;;;;;12.60;12.00;;;;;;;;;;5023133;28;20471;-68
2023/05/23 09:33:51;;;;;;;13.88;13.18;;;;;;;;;;5026459;28;20029;-68
2023/05/23 09:36:17;;;;;;;13.40;12.70;;;;;;;;;;5024131;28;20010;-67
2023/05/23 09:38:43;;;;;;;13.07;12.48;;;;;;;;;;5026075;28;20813;-66
2023/05/23 09:41:12;;;;;;;13.02;12.43;;;;;;;;;;5028762;28;20021;-66
2023/05/23 09:43:38;;;;;;;13.45;12.77;;;;;;;;;;5024569;28;20024;-66
2023/05/23 09:46:08;;;;;;;13.73;13.02;;;;;;;;;;5024789;28;20025;-65
2023/05/23 09:48:34;;;;;;;13.00;12.38;;;;;;;;;;5022965;28;20354;-66
2023/05/23 09:51:02;;;;;;;12.70;12.10;;;;;;;;;;5025880;28;20025;-67
2023/05/23 09:53:28;;;;;;;12.80;12.20;;;;;;;;;;5018704;28;20028;-67
2023/05/23 09:55:54;;;;;;;12.98;12.38;;;;;;;;;;5018679;28;20350;-66
2023/05/23 09:58:22;;;;;;;13.32;12.68;;;;;;;;;;5021430;28;20046;-67
2023/05/23 10:00:50;;;;;;;13.52;12.82;;;;;;;;;;5023530;28;20424;-69
2023/05/23 10:03:16;;;;;;;13.27;12.65;;;;;;;;;;5021113;28;20044;-67
2023/05/23 10:06:00;;;;;;;12.50;11.90;;;;;;;;;;5026349;28;20120;-66
2023/05/23 10:08:28;;;;;;;13.57;12.88;;;;;;;;;;5023102;28;20027;-67
2023/05/23 10:10:57;;;;;;;12.75;12.15;;;;;;;;;;5025997;28;20052;-62
2023/05/23 10:13:25;;;;;;;13.60;12.90;;;;;;;;;;5019892;28;20042;-60
2023/05/23 10:15:53;;;;;;;14.05;13.35;;;;;;;;;;5030284;28;20112;-62
2023/05/23 10:18:22;;;;;;;12.50;11.90;;;;;;;;;;5026561;28;20018;-61
2023/05/23 10:20:48;;;;;;;12.85;12.25;;;;;;;;;;5021500;28;20452;-61
2023/05/23 10:23:14;;;;;;;13.07;12.48;;;;;;;;;;5025309;28;20013;-61
2023/05/23 10:25:41;;;;;;;12.07;11.48;;;;;;;;;;5025404;28;20033;-62
2023/05/23 10:28:06;;;;;;;12.48;11.88;;;;;;;;;;5028567;28;20030;-60
2023/05/23 10:30:33;;;;;;;12.77;12.18;;;;;;;;;;5027379;28;20021;-62
2023/05/23 10:32:59;;;;;;;13.05;12.45;;;;;;;;;;5026492;28;20036;-61
2023/05/23 10:35:41;;;;;;;12.80;12.20;;;;;;;;;;5024432;28;20026;-62
2023/05/23 10:38:12;;;;;;;12.48;11.88;;;;;;;;;;5021221;28;20049;-60
2023/05/23 10:40:56;;;;;;;13.05;12.43;;;;;;;;;;5028147;28;20512;-61
2023/05/23 10:43:25;;;;;;;12.30;11.70;;;;;;;;;;5028521;28;20116;-61
2023/05/23 10:45:51;;;;;;;13.02;12.43;;;;;;;;;;5017385;28;20405;-61
2023/05/23 10:48:20;;;;;;;12.80;12.20;;;;;;;;;;5025140;28;20029;-61
2023/05/23 10:51:00;;;;;;;13.25;12.60;;;;;;;;;;5025385;28;20122;-61
2023/05/23 10:53:27;;;;;;;12.18;11.57;;;;;;;;;;5029530;28;20025;-60
2023/05/23 10:55:54;;;;;;;12.48;11.88;;;;;;;;;;5026832;28;20036;-60
2023/05/23 10:58:21;;;;;;;11.82;11.32;;;;;;;;;;5031725;28;20420;-61
2023/05/23 11:00:53;;;;;;;12.27;11.68;;;;;;;;;;5027170;28;20025;-60
2023/05/23 11:03:29;;;;;;;11.90;11.40;;;;;;;;;;5032511;28;20022;-61
2023/05/23 11:05:54;;;;;;;12.68;12.07;;;;;;;;;;5029674;28;20138;-61
2023/05/23 11:08:19;;;;;;;12.10;11.50;;;;;;;;;;5028957;28;20064;-61
2023/05/23 11:10:52;;;;;;;12.32;11.73;;;;;;;;;;5027765;28;20036;-61
2023/05/23 11:13:18;;;;;;;13.70;13.00;;;;;;;;;;5029920;28;20049;-61
2023/05/23 11:15:44;;;;;;;12.38;11.77;;;;;;;;;;5025655;28;20105;-64
2023/05/23 11:18:18;;;;;;;12.98;12.38;;;;;;;;;;5031626;28;20628;-63
2023/05/23 11:20:44;;;;;;;12.18;11.57;;;;;;;;;;5028992;28;20034;-64
2023/05/23 11:23:11;;;;;;;13.02;12.43;;;;;;;;;;5029734;28;20389;-64
2023/05/23 11:25:43;;;;;;;12.57;11.98;;;;;;;;;;5025391;28;20152;-63
2023/05/23 11:28:09;;;;;;;12.60;12.00;;;;;;;;;;5032307;28;20041;-67
2023/05/23 11:30:37;;;;;;;12.98;12.38;;;;;;;;;;5025351;28;20060;-67
2023/05/23 11:33:12;;;;;;;12.90;12.30;;;;;;;;;;5019017;28;20681;-68
2023/05/23 11:35:39;;;;;;;13.48;12.82;;;;;;;;;;5022235;28;20040;-68
2023/05/23 11:38:05;;;;;;;12.80;12.20;;;;;;;;;;5026339;28;20024;-68
2023/05/23 11:40:35;;;;;;;13.40;12.80;;;;;;;;;;5027016;28;20022;-64
2023/05/23 11:43:01;;;;;;;13.55;12.88;;;;;;;;;;5027029;28;20504;-67
2023/05/23 11:45:27;;;;;;;12.88;12.27;;;;;;;;;;5024934;28;20021;-68
2023/05/23 11:47:53;;;;;;;13.70;13.00;;;;;;;;;;5023087;28;20040;-64
2023/05/23 11:50:23;;;;;;;13.48;12.85;;;;;;;;;;5028756;28;20481;-69
2023/05/23 11:52:52;;;;;;;13.30;12.70;;;;;;;;;;5025728;28;20037;-67
2023/05/23 11:55:21;;;;;;;13.18;12.57;;;;;;;;;;5027678;28;20013;-67
2023/05/23 11:57:46;;;;;;;13.48;12.88;;;;;;;;;;5024641;28;20021;-68
2023/05/23 12:00:12;;;;;;;13.27;12.68;;;;;;;;;;5029169;28;20062;-67
2023/05/23 12:02:38;;;;;;;13.30;12.70;;;;;;;;;;5026986;28;20033;-66
2023/05/23 12:05:12;;;;;;;12.70;12.10;;;;;;;;;;5026061;28;20057;-66
2023/05/23 12:07:41;;;;;;;13.38;12.77;;;;;;;;;;5024283;28;20763;-67
2023/05/23 12:10:07;;;;;;;12.90;12.30;;;;;;;;;;5027242;28;20060;-69
2023/05/23 12:12:32;;;;;;;13.02;12.43;;;;;;;;;;5023376;28;20045;-67
2023/05/23 12:14:58;;;;;;;13.88;13.18;;;;;;;;;;5021666;28;20029;-68
2023/05/23 12:17:24;;;;;;;13.80;13.10;;;;;;;;;;5024514;28;20029;-67
2023/05/23 12:19:49;;;;;;;14.82;14.07;;;;;;;;;;5022719;28;20024;-66
2023/05/23 12:22:21;;;;;;;13.25;12.65;;;;;;;;;;5023766;28;20021;-67
2023/05/23 12:24:46;;;;;;;13.38;12.77;;;;;;;;;;5027235;28;20131;-67
2023/05/23 12:27:12;;;;;;;13.40;12.75;;;;;;;;;;5026431;28;20512;-66
2023/05/23 12:29:38;;;;;;;13.73;13.02;;;;;;;;;;5024630;28;20033;-66
2023/05/23 12:32:04;;;;;;;12.85;12.25;;;;;;;;;;5020210;28;20068;-66
2023/05/23 12:34:29;;;;;;;13.20;12.60;;;;;;;;;;5024379;28;20022;-70
2023/05/23 12:37:02;;;;;;;13.18;12.57;;;;;;;;;;5024519;28;20029;-67
2023/05/23 12:39:28;;;;;;;12.88;12.27;;;;;;;;;;5024647;28;20024;-66
2023/05/23 12:41:57;;;;;;;13.02;12.43;;;;;;;;;;5024528;28;20022;-66
2023/05/23 12:44:22;;;;;;;12.65;12.05;;;;;;;;;;5025093;28;20045;-66
2023/05/23 12:46:48;;;;;;;13.15;12.55;;;;;;;;;;5019108;28;20034;-66
2023/05/23 12:49:13;;;;;;;12.93;12.33;;;;;;;;;;5021421;28;20056;-65
2023/05/23 12:51:39;;;;;;;12.93;12.32;;;;;;;;;;5022314;28;20274;-65
2023/05/23 12:54:04;;;;;;;12.65;12.05;;;;;;;;;;5018159;28;20512;-69
2023/05/23 12:56:30;;;;;;;13.80;13.10;;;;;;;;;;5020060;28;20065;-67
2023/05/23 12:58:55;;;;;;;12.77;12.18;;;;;;;;;;5022788;28;20028;-67
2023/05/23 13:01:21;;;;;;;12.40;11.80;;;;;;;;;;5028372;28;20026;-67
2023/05/23 13:03:46;;;;;;;13.05;12.45;;;;;;;;;;5024097;28;20547;-67
2023/05/23 13:06:11;;;;;;;13.02;12.43;;;;;;;;;;5025692;28;20029;-66
2023/05/23 13:08:37;;;;;;;13.80;13.10;;;;;;;;;;5025103;28;20051;-67
2023/05/23 13:11:02;;;;;;;12.40;11.80;;;;;;;;;;5018784;28;20033;-66
2023/05/23 13:13:28;;;;;;;12.35;11.75;;;;;;;;;;5025625;28;21195;-68
2023/05/23 13:15:55;;;;;;;12.88;12.27;;;;;;;;;;5020651;28;20038;-68
2023/05/23 13:18:20;;;;;;;14.13;13.43;;;;;;;;;;5023012;28;20036;-68
2023/05/23 13:20:45;;;;;;;14.10;13.40;;;;;;;;;;5021948;28;20109;-67
2023/05/23 13:23:11;;;;;;;13.88;13.18;;;;;;;;;;5025522;28;20443;-67
2023/05/23 13:25:37;;;;;;;12.80;12.20;;;;;;;;;;5021935;28;20048;-67
2023/05/23 13:28:02;;;;;;;13.05;12.45;;;;;;;;;;5026519;28;20274;-66
2023/05/23 13:30:27;;;;;;;12.90;12.30;;;;;;;;;;5024288;28;20029;-67
2023/05/23 13:32:53;;;;;;;12.35;11.75;;;;;;;;;;5023413;28;20108;-69
2023/05/23 13:35:18;;;;;;;13.05;12.45;;;;;;;;;;5021864;28;20032;-66
2023/05/23 13:37:44;;;;;;;13.35;12.70;;;;;;;;;;5023820;28;20052;-64
2023/05/23 13:40:11;;;;;;;13.60;12.90;;;;;;;;;;5024813;28;20025;-71
2023/05/23 13:42:37;;;;;;;13.27;12.63;;;;;;;;;;5024653;28;20055;-69
2023/05/23 13:45:03;;;;;;;13.93;13.23;;;;;;;;;;5019404;28;20025;-66
2023/05/23 13:47:29;;;;;;;13.15;12.55;;;;;;;;;;5024204;28;20145;-65
2023/05/23 13:49:55;;;;;;;13.40;12.70;;;;;;;;;;5025697;28;20810;-65
2023/05/23 13:52:20;;;;;;;14.05;13.35;;;;;;;;;;5024630;28;20159;-66
2023/05/23 13:54:45;;;;;;;12.73;12.13;;;;;;;;;;5022670;28;20024;-65
2023/05/23 13:57:11;;;;;;;12.90;12.30;;;;;;;;;;5018667;28;20714;-68
2023/05/23 13:59:36;;;;;;;13.10;12.48;;;;;;;;;;5023078;28;20458;-68
2023/05/23 14:02:01;;;;;;;13.20;12.57;;;;;;;;;;5023082;28;20147;-68
2023/05/23 14:04:26;;;;;;;13.85;13.15;;;;;;;;;;5023259;28;20801;-67
2023/05/23 14:06:52;;;;;;;13.57;12.88;;;;;;;;;;5026397;28;20040;-69
2023/05/23 14:09:18;;;;;;;13.63;12.93;;;;;;;;;;5025694;28;20128;-67
2023/05/23 14:11:43;;;;;;;13.32;12.65;;;;;;;;;;5018700;28;20371;-65